Time;durP1;ratioP1;P1;durP2;ratioP2;P2;SDS_P1;SDS_P2;PMS_P1;PMS_P2;Temp;Humidity;BMP_temperature;BMP_pressure;BME280_temperature;BME280_humidity;BME280_pressure;Samples;Min_cycle;Max_cycle;Signal;HPM_P1;HPM_P2
2022/04/20 00:03:34;;;;;;;;;;;13.00;39.20;;;;;;8378494;28;19943;-70
2022/04/20 00:07:36;;;;;;;;;;;13.00;38.00;;;;;;8413934;28;19924;-70
2022/04/20 00:11:38;;;;;;;;;;;12.90;39.50;;;;;;8383014;28;20292;-70
2022/04/20 00:15:39;;;;;;;;;;;12.70;39.30;;;;;;8382077;28;20439;-70
2022/04/20 00:19:41;;;;;;;;;;;12.60;38.80;;;;;;8385317;28;19978;-70
2022/04/20 00:23:43;;;;;;;;;;;12.50;38.70;;;;;;8378553;28;19924;-70
2022/04/20 00:27:44;;;;;;;;;;;12.40;39.60;;;;;;8380972;28;19929;-70
2022/04/20 00:31:46;;;;;;;;;;;12.30;40.50;;;;;;8387054;28;19925;-70
2022/04/20 00:35:48;;;;;;;;;;;12.30;39.50;;;;;;8380739;28;19929;-70
2022/04/20 00:39:50;;;;;;;;;;;12.20;39.30;;;;;;8382587;28;19948;-70
2022/04/20 00:43:52;;;;;;;;;;;12.10;40.60;;;;;;8383366;28;19933;-70
2022/04/20 00:47:54;;;;;;;;;;;12.00;40.90;;;;;;8385284;28;19928;-70
2022/04/20 00:52:00;;;;;;;;;;;12.00;39.90;;;;;;8376346;28;20384;-70
2022/04/20 00:56:01;;;;;;;;;;;11.90;40.60;;;;;;8384510;28;19935;-70
2022/04/20 01:00:03;;;;;;;;;;;11.80;41.90;;;;;;8391226;28;20018;-70
2022/04/20 01:04:05;;;;;;;;;;;11.80;41.10;;;;;;8380566;28;19924;-70
2022/04/20 01:13:10;;;;;;;;;;;11.70;39.90;;;;;;8368429;28;19962;-71
2022/04/20 01:17:12;;;;;;;;;;;11.60;40.70;;;;;;8388892;28;19952;-70
2022/04/20 01:21:14;;;;;;;;;;;11.50;40.60;;;;;;8383543;28;19940;-70
2022/04/20 01:25:15;;;;;;;;;;;11.40;40.90;;;;;;8392504;28;19929;-70
2022/04/20 01:29:18;;;;;;;;;;;11.30;40.70;;;;;;8389083;28;19933;-70
2022/04/20 01:33:20;;;;;;;;;;;11.20;40.60;;;;;;8386185;28;19932;-70
2022/04/20 01:37:21;;;;;;;;;;;11.20;42.30;;;;;;8389527;28;19925;-70
2022/04/20 01:41:23;;;;;;;;;;;11.10;41.80;;;;;;8389350;28;19943;-70
2022/04/20 01:45:25;;;;;;;;;;;11.10;43.20;;;;;;8401167;28;19931;-70
2022/04/20 01:49:26;;;;;;;;;;;11.00;40.90;;;;;;8384356;28;20018;-70
2022/04/20 01:53:30;;;;;;;;;;;11.00;42.50;;;;;;8388730;28;19975;-70
2022/04/20 01:57:33;;;;;;;;;;;10.90;41.80;;;;;;8383254;28;20284;-70
2022/04/20 02:05:55;;;;;;;;;;;10.80;41.90;;;;;;8385490;28;20430;-70
2022/04/20 02:09:56;;;;;;;;;;;10.80;42.30;;;;;;8382561;28;20656;-70
2022/04/20 02:13:59;;;;;;;;;;;10.70;42.20;;;;;;8393298;28;19924;-70
2022/04/20 02:18:00;;;;;;;;;;;10.60;41.80;;;;;;8393611;28;19973;-70
2022/04/20 02:22:02;;;;;;;;;;;10.60;44.70;;;;;;8388578;28;19928;-70
2022/04/20 02:26:04;;;;;;;;;;;10.50;42.00;;;;;;8381566;28;19931;-70
2022/04/20 02:30:06;;;;;;;;;;;10.50;43.00;;;;;;8381642;28;20006;-70
2022/04/20 02:34:07;;;;;;;;;;;10.40;43.30;;;;;;8385242;28;19933;-70
2022/04/20 02:38:14;;;;;;;;;;;10.30;42.90;;;;;;8388054;28;19931;-70
2022/04/20 02:42:16;;;;;;;;;;;10.30;43.40;;;;;;8378877;28;19929;-70
2022/04/20 02:46:17;;;;;;;;;;;10.20;45.00;;;;;;8385382;28;19966;-70
2022/04/20 02:50:19;;;;;;;;;;;10.20;43.50;;;;;;8387021;28;19969;-70
2022/04/20 02:54:20;;;;;;;;;;;10.10;44.20;;;;;;8388979;28;19924;-70
2022/04/20 02:58:22;;;;;;;;;;;10.10;45.40;;;;;;8388262;28;19929;-70
2022/04/20 03:02:24;;;;;;;;;;;10.00;44.70;;;;;;8387643;28;20372;-70
2022/04/20 03:06:27;;;;;;;;;;;10.00;43.20;;;;;;8384717;28;19931;-70
2022/04/20 03:10:28;;;;;;;;;;;9.90;44.60;;;;;;8388311;28;20368;-70
2022/04/20 03:14:30;;;;;;;;;;;9.90;45.10;;;;;;8384550;28;19932;-70
2022/04/20 03:18:32;;;;;;;;;;;9.90;45.60;;;;;;8386657;28;19950;-70
2022/04/20 03:22:34;;;;;;;;;;;9.70;44.80;;;;;;8391798;28;19928;-70
2022/04/20 03:26:36;;;;;;;;;;;9.70;44.60;;;;;;8389809;28;19925;-70
2022/04/20 03:30:39;;;;;;;;;;;9.60;45.80;;;;;;8381775;28;19931;-70
2022/04/20 03:34:40;;;;;;;;;;;9.50;43.50;;;;;;8384521;28;19924;-70
2022/04/20 03:38:42;;;;;;;;;;;9.50;44.70;;;;;;8389315;28;19928;-70
2022/04/20 03:42:44;;;;;;;;;;;9.50;44.10;;;;;;8388159;28;19935;-70
2022/04/20 03:46:57;;;;;;;;;;;9.40;44.60;;;;;;8379967;28;19932;-70
2022/04/20 03:50:59;;;;;;;;;;;9.30;45.90;;;;;;8384920;28;19928;-70
2022/04/20 03:55:01;;;;;;;;;;;9.30;46.50;;;;;;8384012;28;19924;-70
2022/04/20 03:59:02;;;;;;;;;;;9.20;45.50;;;;;;8390425;28;20308;-70
2022/04/20 04:03:07;;;;;;;;;;;9.20;46.30;;;;;;8375170;28;20356;-70
2022/04/20 04:07:09;;;;;;;;;;;9.10;45.20;;;;;;8376053;28;19982;-70
2022/04/20 04:11:11;;;;;;;;;;;9.10;45.30;;;;;;8384632;28;19951;-70
2022/04/20 04:15:12;;;;;;;;;;;9.10;46.00;;;;;;8383486;28;20050;-70
2022/04/20 04:19:14;;;;;;;;;;;9.10;45.50;;;;;;8408355;28;19936;-70
2022/04/20 04:23:16;;;;;;;;;;;9.00;45.80;;;;;;8417068;28;19933;-70
2022/04/20 04:27:18;;;;;;;;;;;9.00;45.80;;;;;;8374468;28;19928;-70
2022/04/20 04:31:19;;;;;;;;;;;8.90;46.80;;;;;;8385914;28;19959;-70
2022/04/20 04:35:21;;;;;;;;;;;8.90;46.60;;;;;;8378981;28;20007;-70
2022/04/20 04:39:23;;;;;;;;;;;8.80;46.50;;;;;;8378971;28;19943;-70
2022/04/20 04:43:25;;;;;;;;;;;8.80;46.60;;;;;;8384220;28;19952;-70
2022/04/20 04:52:01;;;;;;;;;;;8.70;46.10;;;;;;8381335;28;19924;-70
2022/04/20 04:56:02;;;;;;;;;;;8.70;46.30;;;;;;8390841;28;21319;-70
2022/04/20 05:00:04;;;;;;;;;;;8.70;45.90;;;;;;8390345;28;19936;-70
2022/04/20 05:04:06;;;;;;;;;;;8.80;47.20;;;;;;8396265;28;19937;-70
2022/04/20 05:08:08;;;;;;;;;;;8.80;48.30;;;;;;8388166;28;19943;-70
2022/04/20 05:12:09;;;;;;;;;;;8.90;47.40;;;;;;8396120;28;19929;-70
2022/04/20 05:16:12;;;;;;;;;;;8.90;47.10;;;;;;8387513;28;19982;-70
2022/04/20 05:20:15;;;;;;;;;;;9.00;47.70;;;;;;8378085;28;19929;-70
2022/04/20 05:24:16;;;;;;;;;;;9.10;48.20;;;;;;8381966;28;19947;-71
2022/04/20 05:28:18;;;;;;;;;;;9.10;48.10;;;;;;8386835;28;19940;-70
2022/04/20 05:32:20;;;;;;;;;;;9.20;48.90;;;;;;8392683;28;19932;-71
2022/04/20 05:36:21;;;;;;;;;;;9.30;48.50;;;;;;8381794;28;19924;-70
2022/04/20 05:44:44;;;;;;;;;;;9.50;50.80;;;;;;8388412;28;20304;-70
2022/04/20 05:48:46;;;;;;;;;;;9.60;50.70;;;;;;8377966;28;19955;-70
2022/04/20 05:52:47;;;;;;;;;;;9.70;50.60;;;;;;8383562;28;19932;-70
2022/04/20 05:56:49;;;;;;;;;;;9.80;49.80;;;;;;8389650;28;20351;-70
2022/04/20 06:00:50;;;;;;;;;;;9.90;51.10;;;;;;8379687;28;20300;-70
2022/04/20 06:04:52;;;;;;;;;;;10.00;50.00;;;;;;8378256;28;19925;-70
2022/04/20 06:08:54;;;;;;;;;;;10.10;51.20;;;;;;8366000;28;19932;-70
2022/04/20 06:12:55;;;;;;;;;;;10.20;50.20;;;;;;8353315;28;19933;-70
2022/04/20 06:16:57;;;;;;;;;;;10.30;50.60;;;;;;8352858;28;19933;-70
2022/04/20 06:21:02;;;;;;;;;;;10.40;49.90;;;;;;8360259;28;20299;-70
2022/04/20 06:25:04;;;;;;;;;;;10.50;51.00;;;;;;8370866;28;19932;-70
2022/04/20 06:29:06;;;;;;;;;;;10.60;49.40;;;;;;8357039;28;19932;-70
2022/04/20 06:33:07;;;;;;;;;;;10.80;49.90;;;;;;8354611;28;19924;-70
2022/04/20 06:37:13;;;;;;;;;;;10.90;49.70;;;;;;8358325;28;19925;-70
2022/04/20 06:41:14;;;;;;;;;;;11.10;49.10;;;;;;8372845;28;19929;-70
2022/04/20 06:45:16;;;;;;;;;;;11.20;49.50;;;;;;8358069;28;20379;-70
2022/04/20 06:49:18;;;;;;;;;;;11.40;49.80;;;;;;8358750;28;20418;-70
2022/04/20 07:02:00;;;;;;;;;;;11.70;49.70;;;;;;8358498;28;19933;-70
2022/04/20 07:06:02;;;;;;;;;;;11.90;50.20;;;;;;8352923;28;19931;-70
2022/04/20 07:10:09;;;;;;;;;;;12.10;51.60;;;;;;8357880;28;20396;-70
2022/04/20 07:14:10;;;;;;;;;;;12.20;50.90;;;;;;8355423;28;20644;-70
2022/04/20 07:18:12;;;;;;;;;;;12.40;50.20;;;;;;8353408;28;19991;-72
2022/04/20 07:27:18;;;;;;;;;;;12.60;50.30;;;;;;8357682;28;19963;-70
2022/04/20 07:31:19;;;;;;;;;;;12.80;51.20;;;;;;8354339;28;19948;-70
2022/04/20 07:35:21;;;;;;;;;;;13.00;50.60;;;;;;8351257;28;20066;-70
2022/04/20 07:39:23;;;;;;;;;;;13.10;50.60;;;;;;8354557;28;19925;-70
2022/04/20 07:43:24;;;;;;;;;;;13.30;48.80;;;;;;8353646;28;20078;-70
2022/04/20 07:47:28;;;;;;;;;;;13.50;49.40;;;;;;8357337;28;19932;-70
2022/04/20 07:51:29;;;;;;;;;;;13.60;50.30;;;;;;8350171;28;19929;-70
2022/04/20 07:55:32;;;;;;;;;;;13.80;49.80;;;;;;8356187;28;20313;-70
2022/04/20 07:59:33;;;;;;;;;;;14.00;51.50;;;;;;8356672;28;19936;-70
2022/04/20 08:03:35;;;;;;;;;;;14.20;49.90;;;;;;8354162;28;20012;-70
2022/04/20 08:07:37;;;;;;;;;;;14.30;50.20;;;;;;8362816;28;19929;-71
2022/04/20 08:11:38;;;;;;;;;;;14.40;50.50;;;;;;8351789;28;20003;-70
2022/04/20 08:15:40;;;;;;;;;;;14.60;50.60;;;;;;8354877;28;19925;-70
2022/04/20 08:19:42;;;;;;;;;;;14.70;50.90;;;;;;8383710;28;19925;-70
2022/04/20 08:23:43;;;;;;;;;;;14.80;49.80;;;;;;8359384;28;19933;-70
2022/04/20 08:27:46;;;;;;;;;;;15.00;51.70;;;;;;8369490;28;19940;-70
2022/04/20 08:31:48;;;;;;;;;;;15.10;49.70;;;;;;8366359;28;19936;-73
2022/04/20 08:35:49;;;;;;;;;;;15.30;50.60;;;;;;8365985;28;19924;-70
2022/04/20 08:39:51;;;;;;;;;;;15.40;50.50;;;;;;8366944;28;19928;-70
2022/04/20 08:44:05;;;;;;;;;;;15.50;51.20;;;;;;8378329;28;19933;-69
2022/04/20 08:48:09;;;;;;;;;;;15.70;50.00;;;;;;8360670;28;20014;-70
2022/04/20 09:01:12;;;;;;;;;;;16.10;51.90;;;;;;8358924;28;19925;-70
2022/04/20 09:05:38;;;;;;;;;;;16.30;52.00;;;;;;8355234;28;20032;-70
2022/04/20 09:09:41;;;;;;;;;;;16.40;50.70;;;;;;8353021;28;20275;-69
2022/04/20 09:13:44;;;;;;;;;;;16.60;51.30;;;;;;8357036;28;19925;-70
2022/04/20 09:17:47;;;;;;;;;;;16.70;50.50;;;;;;8357016;28;19925;-70
2022/04/20 09:21:48;;;;;;;;;;;16.80;51.30;;;;;;8351851;28;19933;-69
2022/04/20 09:25:50;;;;;;;;;;;17.00;50.90;;;;;;8354789;28;19971;-70
2022/04/20 09:29:54;;;;;;;;;;;17.10;50.60;;;;;;8364386;28;20384;-70
2022/04/20 09:33:56;;;;;;;;;;;17.20;51.40;;;;;;8353892;28;19932;-70
2022/04/20 09:38:04;;;;;;;;;;;17.30;50.40;;;;;;8353677;28;20377;-70
2022/04/20 09:42:09;;;;;;;;;;;17.40;50.10;;;;;;8368197;28;19932;-70
2022/04/20 09:50:31;;;;;;;;;;;17.50;50.00;;;;;;8353149;28;19932;-69
2022/04/20 09:54:36;;;;;;;;;;;17.50;50.30;;;;;;8360183;28;20345;-70
2022/04/20 09:58:38;;;;;;;;;;;17.60;49.60;;;;;;8361157;28;20209;-70
2022/04/20 10:02:48;;;;;;;;;;;17.70;50.00;;;;;;8357276;28;19932;-69
2022/04/20 10:06:50;;;;;;;;;;;17.80;49.70;;;;;;8362707;28;19938;-69
2022/04/20 10:10:53;;;;;;;;;;;17.90;50.30;;;;;;8373792;28;19932;-69
2022/04/20 10:19:19;;;;;;;;;;;18.30;50.40;;;;;;8369039;28;20189;-69
2022/04/20 10:23:22;;;;;;;;;;;18.60;49.90;;;;;;8370483;28;19925;-69
2022/04/20 10:27:43;;;;;;;;;;;18.80;50.40;;;;;;8365052;28;19925;-69
2022/04/20 10:31:51;;;;;;;;;;;19.20;51.10;;;;;;8365408;28;19931;-70
2022/04/20 10:36:04;;;;;;;;;;;19.60;51.20;;;;;;8364947;28;19943;-69
2022/04/20 10:40:14;;;;;;;;;;;20.00;56.00;;;;;;8364863;28;19931;-70
2022/04/20 10:44:15;;;;;;;;;;;20.40;59.10;;;;;;8363679;28;19932;-70
2022/04/20 10:48:17;;;;;;;;;;;20.90;63.00;;;;;;8388877;27;19932;-70
2022/04/20 10:52:23;;;;;;;;;;;21.20;64.80;;;;;;8356369;28;19974;-70
2022/04/20 10:56:24;;;;;;;;;;;21.40;66.90;;;;;;8360865;28;25081;-70
2022/04/20 11:00:27;;;;;;;;;;;21.70;66.50;;;;;;8360241;28;19947;-71
2022/04/20 11:04:43;;;;;;;;;;;21.80;66.40;;;;;;8363322;28;20383;-70
2022/04/20 11:08:51;;;;;;;;;;;22.10;70.60;;;;;;8347977;28;19929;-71
2022/04/20 11:21:53;;;;;;;;;;;22.60;75.40;;;;;;8366366;28;20572;-71
2022/04/20 11:25:55;;;;;;;;;;;22.50;75.20;;;;;;8360469;28;19928;-71
2022/04/20 11:29:57;;;;;;;2.80;1.17;;;22.40;68.90;;;;;;8360208;28;19931;-70
2022/04/20 11:33:59;;;;;;;;;;;22.60;68.90;;;;;;8371612;28;20488;-71
2022/04/20 11:38:01;;;;;;;3.30;1.20;;;23.00;69.90;;;;;;8363843;28;19939;-71
2022/04/20 11:42:05;;;;;;;2.78;1.00;;;23.30;73.00;;;;;;8364048;28;20079;-71
2022/04/20 11:46:07;;;;;;;2.60;1.08;;;23.70;77.20;;;;;;8367720;28;20053;-71
2022/04/20 11:50:09;;;;;;;1.95;0.95;;;24.00;79.20;;;;;;8369654;28;20054;-71
2022/04/20 11:54:18;;;;;;;2.63;1.30;;;23.90;75.20;;;;;;8368700;28;20053;-71
2022/04/20 11:58:20;;;;;;;2.47;1.13;;;23.80;72.00;;;;;;8374879;28;20053;-71
2022/04/20 12:02:22;;;;;;;2.13;1.10;;;24.00;70.30;;;;;;8367184;28;21387;-71
2022/04/20 12:06:25;;;;;;;3.50;1.30;;;24.40;73.40;;;;;;8364378;28;20499;-73
2022/04/20 12:10:26;;;;;;;3.38;1.20;;;24.90;77.70;;;;;;8372552;28;20057;-73
2022/04/20 12:14:32;;;;;;;3.00;1.20;;;25.40;79.40;;;;;;8371290;28;20083;-73
2022/04/20 12:18:36;;;;;;;3.17;1.20;;;25.90;82.90;;;;;;8398873;28;20049;-73
2022/04/20 12:22:38;;;;;;;2.28;1.10;;;26.10;84.10;;;;;;8371528;28;20389;-73
2022/04/20 12:26:41;;;;;;;3.10;1.20;;;25.90;82.30;;;;;;8372975;28;20057;-73
2022/04/20 12:30:47;;;;;;;4.00;1.30;;;25.60;76.40;;;;;;8369921;28;20553;-73
2022/04/20 12:35:01;;;;;;;2.45;1.20;;;25.20;67.70;;;;;;8370193;28;20045;-73
2022/04/20 12:39:03;;;;;;;;;;;24.60;62.00;;;;;;8367481;28;20150;-73
2022/04/20 12:43:05;;;;;;;;;;;24.10;58.60;;;;;;8368858;28;19921;-73
2022/04/20 12:47:14;;;;;;;;;;;23.80;55.10;;;;;;8376201;28;19920;-73
2022/04/20 12:51:23;;;;;;;3.00;1.30;;;23.40;53.00;;;;;;8372732;28;20016;-73
2022/04/20 13:02:01;;;;;;;2.42;1.10;;;23.30;51.20;;;;;;8368506;28;20064;-74
2022/04/20 13:04:31;;;;;;;1.77;0.98;;;23.20;49.20;;;;;;8371071;28;20052;-72
2022/04/20 13:08:33;;;;;;;2.90;1.10;;;23.40;51.10;;;;;;8371208;28;20076;-73
2022/04/20 13:12:50;;;;;;;2.42;1.00;;;23.90;55.50;;;;;;8377210;28;20056;-74
2022/04/20 13:16:52;;;;;;;3.08;1.30;;;24.30;58.80;;;;;;8374860;28;20737;-76
2022/04/20 13:20:55;;;;;;;2.40;1.02;;;24.30;58.40;;;;;;8376893;28;20093;-76
2022/04/20 13:29:38;;;;;;;;;;;24.00;55.40;;;;;;8347075;28;20063;-72
2022/04/20 13:33:42;;;;;;;;;;;23.80;51.90;;;;;;8363480;28;19928;-74
2022/04/20 13:37:47;;;;;;;;;;;23.40;49.40;;;;;;8375067;28;19936;-80
2022/04/20 13:41:49;;;;;;;7.15;1.50;;;23.00;48.60;;;;;;8380294;28;19924;-74
2022/04/20 13:45:51;;;;;;;4.63;1.52;;;22.70;47.80;;;;;;8376347;28;20055;-75
2022/04/20 13:49:52;;;;;;;2.65;1.38;;;22.60;47.20;;;;;;8375313;28;20060;-71
2022/04/20 13:53:55;;;;;;;3.03;1.30;;;22.90;47.70;;;;;;8409168;27;20040;-72
2022/04/20 13:57:56;;;;;;;3.55;1.30;;;23.80;51.20;;;;;;8375702;28;20044;-78
2022/04/20 14:01:59;;;;;;;;;;;24.60;53.10;;;;;;8373371;28;20064;-76
2022/04/20 14:06:01;;;;;;;;;;;25.10;50.70;;;;;;8378019;28;20065;-77
2022/04/20 14:10:05;;;;;;;;;;;25.70;56.30;;;;;;8370301;28;20064;-78
2022/04/20 14:14:07;;;;;;;2.60;1.35;;;26.50;58.60;;;;;;8375080;28;20066;-75
2022/04/20 14:18:09;;;;;;;3.47;1.63;;;27.00;54.30;;;;;;8377354;28;20069;-72
2022/04/20 14:22:13;;;;;;;3.10;1.50;;;26.80;51.30;;;;;;8375260;28;20040;-74
2022/04/20 14:34:58;;;;;;;;;;;26.30;46.70;;;;;;8375206;28;19928;-78
2022/04/20 14:39:00;;;;;;;3.05;1.45;;;26.50;53.60;;;;;;8372293;28;25064;-77
2022/04/20 14:43:02;;;;;;;3.63;1.40;;;27.10;51.70;;;;;;8403710;28;20511;-77
2022/04/20 14:47:06;;;;;;;;;;;27.00;52.00;;;;;;8368541;28;20052;-78
2022/04/20 14:51:09;;;;;;;2.83;1.40;;;27.00;50.90;;;;;;8363020;28;19928;-74
2022/04/20 14:55:10;;;;;;;3.03;1.30;;;27.00;49.90;;;;;;8386378;28;20084;-74
2022/04/20 14:59:17;;;;;;;2.15;1.10;;;27.30;51.00;;;;;;8372428;28;20484;-75
2022/04/20 15:03:19;;;;;;;2.38;1.30;;;27.70;48.80;;;;;;8397405;27;20068;-75
2022/04/20 15:07:21;;;;;;;3.13;1.27;;;28.00;49.80;;;;;;8368351;28;20053;-79
2022/04/20 15:11:28;;;;;;;5.53;1.30;;;28.40;51.40;;;;;;8366062;28;20451;-79
2022/04/20 15:15:31;;;;;;;2.30;1.10;;;28.90;49.60;;;;;;8363341;28;20051;-79
2022/04/20 15:19:33;;;;;;;4.28;1.38;;;29.20;51.80;;;;;;8362467;28;20044;-80
2022/04/20 15:23:34;;;;;;;2.70;1.25;;;29.10;46.70;;;;;;8367695;28;20409;-79
2022/04/20 15:27:36;;;;;;;2.35;1.15;;;29.10;50.60;;;;;;8359419;28;20402;-79
2022/04/20 15:31:38;;;;;;;3.55;1.30;;;29.40;49.80;;;;;;8363684;28;20483;-80
2022/04/20 15:35:41;;;;;;;2.28;1.25;;;29.40;46.60;;;;;;8362799;28;20110;-80
2022/04/20 15:39:46;;;;;;;3.33;1.42;;;29.50;47.90;;;;;;8366588;28;20048;-79
2022/04/20 15:43:57;;;;;;;2.83;1.17;;;29.20;46.30;;;;;;8362655;28;20079;-79
2022/04/20 15:47:58;;;;;;;3.33;1.15;;;29.20;46.10;;;;;;8366901;28;20052;-80
2022/04/20 15:52:00;;;;;;;3.65;1.30;;;29.30;44.10;;;;;;8355722;28;20067;-79
2022/04/20 16:00:24;;;;;;;2.67;1.23;;;29.60;45.90;;;;;;8365083;28;20048;-80
2022/04/20 16:04:32;;;;;;;2.30;1.25;;;29.90;44.40;;;;;;8360487;28;20432;-80
2022/04/20 16:08:35;;;;;;;2.97;1.50;;;29.80;42.30;;;;;;8361801;28;20085;-79
2022/04/20 16:12:38;;;;;;;2.80;1.45;;;29.50;42.00;;;;;;8362840;28;20068;-79
2022/04/20 16:16:42;;;;;;;3.58;1.30;;;29.60;43.40;;;;;;8364344;28;20049;-79
2022/04/20 16:20:44;;;;;;;3.35;1.35;;;30.10;42.50;;;;;;8373950;28;20056;-79
2022/04/20 16:24:46;;;;;;;3.77;1.53;;;30.30;41.20;;;;;;8363468;28;20040;-79
2022/04/20 16:28:48;;;;;;;;;;;29.70;38.20;;;;;;8364040;28;20292;-79
2022/04/20 16:32:50;;;;;;;;;;;29.30;40.00;;;;;;8360477;28;20087;-79
2022/04/20 16:36:53;;;;;;;;;;;29.50;39.70;;;;;;8357466;28;20349;-78
2022/04/20 16:40:56;;;;;;;;;;;29.60;40.20;;;;;;8358449;28;19925;-79
2022/04/20 16:44:58;;;;;;;;;;;29.90;40.40;;;;;;8363395;28;20348;-79
2022/04/20 16:49:00;;;;;;;;;;;29.90;39.30;;;;;;8366827;28;19935;-79
2022/04/20 16:53:02;;;;;;;;;;;29.80;39.00;;;;;;8385418;28;19974;-79
2022/04/20 16:57:03;;;;;;;;;;;29.90;39.10;;;;;;8400158;27;25067;-79
2022/04/20 17:01:05;;;;;;;2.83;1.40;;;30.10;38.70;;;;;;8370005;28;19935;-79
2022/04/20 17:05:51;;;;;;;3.58;1.65;;;30.10;37.80;;;;;;8376615;28;20048;-82
2022/04/20 17:15:15;;;;;;;;;;;29.40;35.90;;;;;;8369448;28;20280;-78
2022/04/20 17:19:17;;;;;;;3.30;1.50;;;29.10;37.30;;;;;;8392263;28;19924;-77
2022/04/20 17:27:40;;;;;;;3.25;1.50;;;28.10;36.20;;;;;;8376377;28;20504;-77
2022/04/20 17:31:43;;;;;;;2.33;1.17;;;27.90;36.30;;;;;;8375797;28;20083;-77
2022/04/20 17:40:07;;;;;;;2.63;1.20;;;27.40;35.50;;;;;;8367431;28;20535;-77
2022/04/20 17:44:10;;;;;;;3.17;1.48;;;27.00;35.80;;;;;;8368034;28;20049;-78
2022/04/20 17:48:13;;;;;;;;;;;26.60;35.30;;;;;;8368709;28;20060;-77
2022/04/20 17:52:14;;;;;;;;;;;25.60;35.10;;;;;;8368625;28;19928;-77
2022/04/20 17:56:16;;;;;;;2.40;1.23;;;24.80;35.30;;;;;;8367416;28;19924;-76
2022/04/20 18:00:18;;;;;;;4.88;1.13;;;24.10;34.90;;;;;;8369359;28;20044;-76
2022/04/20 18:04:21;;;;;;;3.20;1.30;;;23.50;35.00;;;;;;8375240;28;20055;-77
2022/04/20 18:08:23;;;;;;;3.33;1.10;;;23.00;35.10;;;;;;8366311;28;20044;-77
2022/04/20 18:12:24;;;;;;;2.55;1.15;;;22.40;35.40;;;;;;8369494;28;20045;-76
2022/04/20 18:16:26;;;;;;;3.15;1.30;;;21.90;35.30;;;;;;8378008;28;20412;-76
2022/04/20 18:20:28;;;;;;;;;;;21.50;35.80;;;;;;8373189;28;20121;-76
2022/04/20 18:24:30;;;;;;;;;;;21.20;35.80;;;;;;8372196;28;19935;-76
2022/04/20 18:28:31;;;;;;;;;;;20.90;36.30;;;;;;8397344;27;19929;-76
2022/04/20 18:32:33;;;;;;;;;;;20.60;37.00;;;;;;8380213;28;19924;-76
2022/04/20 18:36:35;;;;;;;;;;;20.30;36.60;;;;;;8375090;28;19986;-76
2022/04/20 18:40:36;;;;;;;;;;;20.20;36.00;;;;;;8369913;28;19920;-76
2022/04/20 18:44:38;;;;;;;;;;;20.20;37.20;;;;;;8375476;28;19928;-76
2022/04/20 18:48:41;;;;;;;;;;;20.20;36.10;;;;;;8361164;28;20425;-76
2022/04/20 19:01:24;;;;;;;;;;;20.00;35.60;;;;;;8370735;28;19920;-76
2022/04/20 19:05:26;;;;;;;;;;;19.90;35.40;;;;;;8374121;28;20399;-76
2022/04/20 19:09:32;;;;;;;;;;;19.80;36.10;;;;;;8372664;28;20121;-76
2022/04/20 19:13:35;;;;;;;;;;;19.60;35.80;;;;;;8375051;28;19964;-76
2022/04/20 19:17:38;;;;;;;;;;;19.40;35.90;;;;;;8359471;28;19921;-76
2022/04/20 19:21:41;;;;;;;;;;;19.40;36.30;;;;;;8358488;28;19920;-76
2022/04/20 19:25:44;;;;;;;;;;;19.20;36.20;;;;;;8372782;28;19947;-76
2022/04/20 19:29:46;;;;;;;;;;;19.10;36.60;;;;;;8366063;28;19942;-76
2022/04/20 19:33:49;;;;;;;;;;;19.00;36.00;;;;;;8373362;28;19942;-76
2022/04/20 19:37:50;;;;;;;;;;;19.00;35.50;;;;;;8375184;28;20661;-76
2022/04/20 19:41:53;;;;;;;;;;;19.00;35.70;;;;;;8375544;28;20942;-75
2022/04/20 19:45:54;;;;;;;;;;;19.00;34.80;;;;;;8375495;28;19929;-76
2022/04/20 19:49:56;;;;;;;;;;;19.00;34.50;;;;;;8373765;28;19928;-76
2022/04/20 19:53:58;;;;;;;;;;;18.90;35.20;;;;;;8372906;28;20343;-75
2022/04/20 19:58:00;;;;;;;;;;;18.80;35.60;;;;;;8365789;28;19975;-76
2022/04/20 20:02:02;;;;;;;;;;;18.50;36.10;;;;;;8367461;28;19927;-76
2022/04/20 20:06:17;;;;;;;;;;;18.30;35.90;;;;;;8366679;28;19956;-76
2022/04/20 20:10:19;;;;;;;;;;;18.10;35.10;;;;;;8373611;28;20568;-76
2022/04/20 20:14:23;;;;;;;;;;;18.00;35.50;;;;;;8370666;28;19920;-75
2022/04/20 20:18:25;;;;;;;;;;;18.00;35.10;;;;;;8371433;28;19924;-75
2022/04/20 20:22:32;;;;;;;;;;;18.00;34.80;;;;;;8378288;28;19928;-75
2022/04/20 20:30:54;;;;;;;;;;;17.90;34.60;;;;;;8378293;28;20345;-75
2022/04/20 20:35:05;;;;;;;;;;;17.90;34.50;;;;;;8380087;28;19924;-76
2022/04/20 20:39:07;;;;;;;;;;;17.80;34.70;;;;;;8376083;28;19958;-75
2022/04/20 20:43:09;;;;;;;;;;;17.70;35.40;;;;;;8373695;28;20676;-75
2022/04/20 20:47:12;;;;;;;;;;;17.50;35.50;;;;;;8375286;28;19928;-76
2022/04/20 20:51:16;;;;;;;;;;;17.30;35.80;;;;;;8378247;28;19935;-75
2022/04/20 20:55:17;;;;;;;;;;;17.10;35.80;;;;;;8378107;28;19924;-76
2022/04/20 20:59:19;;;;;;;;;;;16.90;35.90;;;;;;8370937;28;19939;-75
2022/04/20 21:03:20;;;;;;;;;;;16.70;36.20;;;;;;8382901;28;19928;-75
2022/04/20 21:07:24;;;;;;;;;;;16.50;35.80;;;;;;8394602;28;19920;-76
2022/04/20 21:11:26;;;;;;;;;;;16.40;36.50;;;;;;8391839;28;19920;-75
2022/04/20 21:15:27;;;;;;;;;;;16.30;36.30;;;;;;8399908;28;20252;-75
2022/04/20 21:19:29;;;;;;;;;;;16.20;37.20;;;;;;8403709;28;20306;-75
2022/04/20 21:23:31;;;;;;;;;;;16.10;36.50;;;;;;8395308;28;19970;-76
2022/04/20 21:27:33;;;;;;;;;;;16.10;36.10;;;;;;8393821;28;19928;-76
2022/04/20 21:31:36;;;;;;;;;;;16.10;36.30;;;;;;8388734;28;19920;-75
2022/04/20 21:35:38;;;;;;;;;;;16.00;37.10;;;;;;8401650;28;20363;-75
2022/04/20 21:39:40;;;;;;;;;;;15.90;37.00;;;;;;8397524;28;19932;-76
2022/04/20 21:43:41;;;;;;;;;;;15.80;36.90;;;;;;8391540;28;19927;-75
2022/04/20 21:47:43;;;;;;;;;;;15.70;36.40;;;;;;8397206;28;19921;-75
2022/04/20 21:51:45;;;;;;;;;;;15.60;36.90;;;;;;8403261;28;19921;-75
2022/04/20 21:55:48;;;;;;;;;;;15.50;37.60;;;;;;8393391;28;19920;-76
2022/04/20 21:59:49;;;;;;;;;;;15.30;37.80;;;;;;8394668;28;19932;-75
2022/04/20 22:12:32;;;;;;;;;;;15.00;38.30;;;;;;8391948;28;19920;-76
2022/04/20 22:16:34;;;;;;;;;;;14.80;40.70;;;;;;8394632;28;19925;-76
2022/04/20 22:20:36;;;;;;;;;;;14.60;41.20;;;;;;8403882;28;19924;-75
2022/04/20 22:24:37;;;;;;;;;;;14.50;40.20;;;;;;8397978;28;20229;-75
2022/04/20 22:28:39;;;;;;;;;;;14.30;40.70;;;;;;8405823;28;20424;-75
2022/04/20 22:32:41;;;;;;;;;;;14.30;40.80;;;;;;8398809;28;19925;-75
2022/04/20 22:36:43;;;;;;;;;;;14.20;42.20;;;;;;8390334;28;19919;-75
2022/04/20 22:40:44;;;;;;;;;;;14.20;40.30;;;;;;8381898;28;19928;-75
2022/04/20 22:44:46;;;;;;;;;;;14.10;41.40;;;;;;8397645;28;20380;-75
2022/04/20 22:48:49;;;;;;;;;;;14.00;40.70;;;;;;8397601;28;20269;-75
2022/04/20 22:52:51;;;;;;;;;;;14.00;42.10;;;;;;8389401;28;19943;-75
2022/04/20 22:56:52;;;;;;;;;;;13.90;41.80;;;;;;8398655;28;19928;-75
2022/04/20 23:00:54;;;;;;;;;;;13.80;43.30;;;;;;8403632;28;19928;-76
2022/04/20 23:04:56;;;;;;;;;;;13.70;43.50;;;;;;8397049;28;19928;-76
2022/04/20 23:08:57;;;;;;;;;;;13.60;45.60;;;;;;8392066;28;19936;-76
2022/04/20 23:12:59;;;;;;;;;;;13.50;44.50;;;;;;8377244;28;19946;-76
2022/04/20 23:17:01;;;;;;;;;;;13.50;43.80;;;;;;8414957;27;21309;-76
2022/04/20 23:21:03;;;;;;;;;;;13.40;43.40;;;;;;8405126;28;20372;-76
2022/04/20 23:29:25;;;;;;;;;;;13.30;44.10;;;;;;8396867;28;19988;-75
2022/04/20 23:33:45;;;;;;;;;;;13.20;44.60;;;;;;8397407;28;19924;-75
2022/04/20 23:37:47;;;;;;;;;;;13.10;48.90;;;;;;8382394;28;20367;-76
2022/04/20 23:41:49;;;;;;;;;;;13.00;46.10;;;;;;8399742;28;19966;-76
2022/04/20 23:45:51;;;;;;;;;;;13.00;47.00;;;;;;8393533;28;19932;-76
2022/04/20 23:54:13;;;;;;;;;;;12.80;49.20;;;;;;8398296;28;20384;-76
2022/04/20 23:58:14;;;;;;;;;;;12.70;46.10;;;;;;8390374;28;19924;-76
